sensor_id;sensor_type;location;lat;lon;timestamp;temperature;humidity
12708;DHT22;6418;50.824;4.718;2022-11-20T00:01:16;3.40;99.90
12708;DHT22;6418;50.824;4.718;2022-11-20T00:03:44;3.80;99.90
12708;DHT22;6418;50.824;4.718;2022-11-20T00:06:13;3.70;99.90
12708;DHT22;6418;50.824;4.718;2022-11-20T00:08:41;3.50;99.90
12708;DHT22;6418;50.824;4.718;2022-11-20T00:11:09;3.50;99.90
12708;DHT22;6418;50.824;4.718;2022-11-20T00:13:36;4.00;99.90
12708;DHT22;6418;50.824;4.718;2022-11-20T00:16:07;3.40;99.90
12708;DHT22;6418;50.824;4.718;2022-11-20T00:18:35;3.50;99.90
12708;DHT22;6418;50.824;4.718;2022-11-20T00:21:03;3.40;99.90
12708;DHT22;6418;50.824;4.718;2022-11-20T00:23:30;3.40;99.90
12708;DHT22;6418;50.824;4.718;2022-11-20T00:26:01;4.90;99.90
12708;DHT22;6418;50.824;4.718;2022-11-20T00:28:28;3.50;99.90
12708;DHT22;6418;50.824;4.718;2022-11-20T00:31:00;3.50;99.90
12708;DHT22;6418;50.824;4.718;2022-11-20T00:33:29;3.50;99.90
12708;DHT22;6418;50.824;4.718;2022-11-20T00:36:00;4.50;99.90
12708;DHT22;6418;50.824;4.718;2022-11-20T00:38:27;3.50;99.90
12708;DHT22;6418;50.824;4.718;2022-11-20T00:40:56;3.50;99.90
12708;DHT22;6418;50.824;4.718;2022-11-20T00:43:23;3.50;99.90
12708;DHT22;6418;50.824;4.718;2022-11-20T00:45:50;3.40;99.90
12708;DHT22;6418;50.824;4.718;2022-11-20T00:48:16;4.80;99.90
12708;DHT22;6418;50.824;4.718;2022-11-20T00:50:45;3.40;99.90
12708;DHT22;6418;50.824;4.718;2022-11-20T00:53:12;3.40;99.90
12708;DHT22;6418;50.824;4.718;2022-11-20T00:55:39;3.40;99.90
12708;DHT22;6418;50.824;4.718;2022-11-20T00:58:06;3.40;99.90
12708;DHT22;6418;50.824;4.718;2022-11-20T01:00:33;3.40;99.90
12708;DHT22;6418;50.824;4.718;2022-11-20T01:03:00;3.50;99.90
12708;DHT22;6418;50.824;4.718;2022-11-20T01:05:27;3.40;99.90
12708;DHT22;6418;50.824;4.718;2022-11-20T01:07:55;3.30;99.90
12708;DHT22;6418;50.824;4.718;2022-11-20T01:10:23;3.40;99.90
12708;DHT22;6418;50.824;4.718;2022-11-20T01:12:49;3.40;99.90
12708;DHT22;6418;50.824;4.718;2022-11-20T01:15:37;3.40;99.90
12708;DHT22;6418;50.824;4.718;2022-11-20T01:18:03;3.40;99.90
12708;DHT22;6418;50.824;4.718;2022-11-20T01:20:34;3.30;99.90
12708;DHT22;6418;50.824;4.718;2022-11-20T01:23:02;3.40;99.90
12708;DHT22;6418;50.824;4.718;2022-11-20T01:25:30;3.40;99.90
12708;DHT22;6418;50.824;4.718;2022-11-20T01:27:57;3.40;99.90
12708;DHT22;6418;50.824;4.718;2022-11-20T01:30:24;3.50;99.90
12708;DHT22;6418;50.824;4.718;2022-11-20T01:32:50;3.40;99.90
12708;DHT22;6418;50.824;4.718;2022-11-20T01:35:17;3.40;99.90
12708;DHT22;6418;50.824;4.718;2022-11-20T01:37:44;3.60;99.90
12708;DHT22;6418;50.824;4.718;2022-11-20T01:40:13;3.40;99.90
12708;DHT22;6418;50.824;4.718;2022-11-20T01:42:46;3.30;99.90
12708;DHT22;6418;50.824;4.718;2022-11-20T01:46:05;3.40;99.90
12708;DHT22;6418;50.824;4.718;2022-11-20T01:48:37;3.40;99.90
12708;DHT22;6418;50.824;4.718;2022-11-20T01:51:09;3.40;99.90
12708;DHT22;6418;50.824;4.718;2022-11-20T01:53:39;3.40;99.90
12708;DHT22;6418;50.824;4.718;2022-11-20T01:56:10;3.40;99.90
12708;DHT22;6418;50.824;4.718;2022-11-20T01:58:42;3.40;99.90
12708;DHT22;6418;50.824;4.718;2022-11-20T02:01:12;3.40;99.90
12708;DHT22;6418;50.824;4.718;2022-11-20T02:03:39;3.40;99.90
12708;DHT22;6418;50.824;4.718;2022-11-20T02:06:11;3.40;99.90
12708;DHT22;6418;50.824;4.718;2022-11-20T02:08:39;3.40;99.90
12708;DHT22;6418;50.824;4.718;2022-11-20T02:11:08;3.40;99.90
12708;DHT22;6418;50.824;4.718;2022-11-20T02:13:35;3.40;99.90
12708;DHT22;6418;50.824;4.718;2022-11-20T02:16:13;3.70;99.90
12708;DHT22;6418;50.824;4.718;2022-11-20T02:18:42;3.30;99.90
12708;DHT22;6418;50.824;4.718;2022-11-20T02:21:16;3.30;99.90
12708;DHT22;6418;50.824;4.718;2022-11-20T02:24:06;3.40;99.90
12708;DHT22;6418;50.824;4.718;2022-11-20T02:26:39;3.30;99.90
12708;DHT22;6418;50.824;4.718;2022-11-20T02:29:07;3.40;99.90
12708;DHT22;6418;50.824;4.718;2022-11-20T02:31:38;3.30;99.90
12708;DHT22;6418;50.824;4.718;2022-11-20T02:34:06;3.30;99.90
12708;DHT22;6418;50.824;4.718;2022-11-20T02:36:35;3.40;99.90
12708;DHT22;6418;50.824;4.718;2022-11-20T02:39:04;3.40;99.90
12708;DHT22;6418;50.824;4.718;2022-11-20T02:41:34;3.40;99.90
12708;DHT22;6418;50.824;4.718;2022-11-20T02:44:01;3.40;99.90
12708;DHT22;6418;50.824;4.718;2022-11-20T02:46:28;3.40;99.90
12708;DHT22;6418;50.824;4.718;2022-11-20T02:48:55;3.40;99.90
12708;DHT22;6418;50.824;4.718;2022-11-20T02:51:23;3.40;99.90
12708;DHT22;6418;50.824;4.718;2022-11-20T02:53:50;3.40;99.90
12708;DHT22;6418;50.824;4.718;2022-11-20T02:56:18;3.30;99.90
12708;DHT22;6418;50.824;4.718;2022-11-20T02:58:45;3.40;99.90
12708;DHT22;6418;50.824;4.718;2022-11-20T03:01:12;3.40;99.90
12708;DHT22;6418;50.824;4.718;2022-11-20T03:03:39;3.40;99.90
12708;DHT22;6418;50.824;4.718;2022-11-20T03:06:07;3.40;99.90
12708;DHT22;6418;50.824;4.718;2022-11-20T03:08:34;3.40;99.90
12708;DHT22;6418;50.824;4.718;2022-11-20T03:11:05;4.30;99.90
12708;DHT22;6418;50.824;4.718;2022-11-20T03:13:35;3.40;99.90
12708;DHT22;6418;50.824;4.718;2022-11-20T03:16:10;3.70;99.90
12708;DHT22;6418;50.824;4.718;2022-11-20T03:18:37;3.40;99.90
12708;DHT22;6418;50.824;4.718;2022-11-20T03:21:05;3.40;99.90
12708;DHT22;6418;50.824;4.718;2022-11-20T03:23:34;3.40;99.90
12708;DHT22;6418;50.824;4.718;2022-11-20T03:26:08;3.40;99.90
12708;DHT22;6418;50.824;4.718;2022-11-20T03:28:36;3.40;99.90
12708;DHT22;6418;50.824;4.718;2022-11-20T03:31:08;3.40;99.90
12708;DHT22;6418;50.824;4.718;2022-11-20T03:33:35;3.40;99.90
12708;DHT22;6418;50.824;4.718;2022-11-20T03:36:03;3.40;99.90
12708;DHT22;6418;50.824;4.718;2022-11-20T03:38:31;3.40;99.90
12708;DHT22;6418;50.824;4.718;2022-11-20T03:40:59;3.40;99.90
12708;DHT22;6418;50.824;4.718;2022-11-20T03:43:27;3.40;99.90
12708;DHT22;6418;50.824;4.718;2022-11-20T03:45:56;3.30;99.90
12708;DHT22;6418;50.824;4.718;2022-11-20T03:48:23;3.40;99.90
12708;DHT22;6418;50.824;4.718;2022-11-20T03:50:50;3.40;99.90
12708;DHT22;6418;50.824;4.718;2022-11-20T03:53:19;3.40;99.90
12708;DHT22;6418;50.824;4.718;2022-11-20T03:55:51;3.40;99.90
12708;DHT22;6418;50.824;4.718;2022-11-20T03:58:17;3.40;99.90
12708;DHT22;6418;50.824;4.718;2022-11-20T04:00:44;3.40;99.90
12708;DHT22;6418;50.824;4.718;2022-11-20T04:03:13;3.40;99.90
12708;DHT22;6418;50.824;4.718;2022-11-20T04:05:40;3.60;99.90
12708;DHT22;6418;50.824;4.718;2022-11-20T04:08:07;3.40;99.90
12708;DHT22;6418;50.824;4.718;2022-11-20T04:10:34;3.40;99.90
12708;DHT22;6418;50.824;4.718;2022-11-20T04:13:01;3.40;99.90
12708;DHT22;6418;50.824;4.718;2022-11-20T04:15:28;3.40;99.90
12708;DHT22;6418;50.824;4.718;2022-11-20T04:17:55;3.40;99.90
12708;DHT22;6418;50.824;4.718;2022-11-20T04:20:24;3.50;99.90
12708;DHT22;6418;50.824;4.718;2022-11-20T04:22:53;3.40;99.90
12708;DHT22;6418;50.824;4.718;2022-11-20T04:25:21;3.40;99.90
12708;DHT22;6418;50.824;4.718;2022-11-20T04:27:48;3.40;99.90
12708;DHT22;6418;50.824;4.718;2022-11-20T04:30:15;3.40;99.90
12708;DHT22;6418;50.824;4.718;2022-11-20T04:32:42;3.50;99.90
12708;DHT22;6418;50.824;4.718;2022-11-20T04:35:09;3.40;99.90
12708;DHT22;6418;50.824;4.718;2022-11-20T04:37:37;3.40;99.90
12708;DHT22;6418;50.824;4.718;2022-11-20T04:40:05;3.40;99.90
12708;DHT22;6418;50.824;4.718;2022-11-20T04:42:32;3.40;99.90
12708;DHT22;6418;50.824;4.718;2022-11-20T04:44:59;3.40;99.90
12708;DHT22;6418;50.824;4.718;2022-11-20T04:47:26;4.60;99.90
12708;DHT22;6418;50.824;4.718;2022-11-20T04:49:53;3.40;99.90
12708;DHT22;6418;50.824;4.718;2022-11-20T04:52:20;4.20;99.90
12708;DHT22;6418;50.824;4.718;2022-11-20T04:54:48;3.40;99.90
12708;DHT22;6418;50.824;4.718;2022-11-20T04:57:18;3.40;99.90
12708;DHT22;6418;50.824;4.718;2022-11-20T04:59:45;3.30;99.90
12708;DHT22;6418;50.824;4.718;2022-11-20T05:02:12;3.30;99.90
12708;DHT22;6418;50.824;4.718;2022-11-20T05:04:38;3.30;99.90
12708;DHT22;6418;50.824;4.718;2022-11-20T05:07:05;3.30;99.90
12708;DHT22;6418;50.824;4.718;2022-11-20T05:09:32;3.30;99.90
12708;DHT22;6418;50.824;4.718;2022-11-20T05:12:01;3.30;99.90
12708;DHT22;6418;50.824;4.718;2022-11-20T05:14:28;3.30;99.90
12708;DHT22;6418;50.824;4.718;2022-11-20T05:16:55;3.30;99.90
12708;DHT22;6418;50.824;4.718;2022-11-20T05:19:21;3.20;99.90
12708;DHT22;6418;50.824;4.718;2022-11-20T05:21:48;3.20;99.90
12708;DHT22;6418;50.824;4.718;2022-11-20T05:24:15;3.30;99.90
12708;DHT22;6418;50.824;4.718;2022-11-20T05:26:42;3.50;99.90
12708;DHT22;6418;50.824;4.718;2022-11-20T05:29:12;3.30;99.90
12708;DHT22;6418;50.824;4.718;2022-11-20T05:31:39;3.30;99.90
12708;DHT22;6418;50.824;4.718;2022-11-20T05:34:07;3.50;99.90
12708;DHT22;6418;50.824;4.718;2022-11-20T05:36:33;3.30;99.90
12708;DHT22;6418;50.824;4.718;2022-11-20T05:39:00;3.30;99.90
12708;DHT22;6418;50.824;4.718;2022-11-20T05:41:28;3.30;99.90
12708;DHT22;6418;50.824;4.718;2022-11-20T05:43:56;3.30;99.90
12708;DHT22;6418;50.824;4.718;2022-11-20T05:46:25;3.40;99.90
12708;DHT22;6418;50.824;4.718;2022-11-20T05:48:52;3.40;99.90
12708;DHT22;6418;50.824;4.718;2022-11-20T05:51:20;3.40;99.90
12708;DHT22;6418;50.824;4.718;2022-11-20T05:53:46;3.40;99.90
12708;DHT22;6418;50.824;4.718;2022-11-20T05:56:16;3.40;99.90
12708;DHT22;6418;50.824;4.718;2022-11-20T05:58:43;3.50;99.90
12708;DHT22;6418;50.824;4.718;2022-11-20T06:01:13;3.40;99.90
12708;DHT22;6418;50.824;4.718;2022-11-20T06:03:42;3.40;99.90
12708;DHT22;6418;50.824;4.718;2022-11-20T06:06:11;4.30;99.90
12708;DHT22;6418;50.824;4.718;2022-11-20T06:08:38;3.50;99.90
12708;DHT22;6418;50.824;4.718;2022-11-20T06:11:07;3.50;99.90
12708;DHT22;6418;50.824;4.718;2022-11-20T06:13:34;3.50;99.90
12708;DHT22;6418;50.824;4.718;2022-11-20T06:16:02;3.50;99.90
12708;DHT22;6418;50.824;4.718;2022-11-20T06:18:30;3.50;99.90
12708;DHT22;6418;50.824;4.718;2022-11-20T06:21:03;3.60;99.90
12708;DHT22;6418;50.824;4.718;2022-11-20T06:23:31;3.50;99.90
12708;DHT22;6418;50.824;4.718;2022-11-20T06:26:02;3.50;99.90
12708;DHT22;6418;50.824;4.718;2022-11-20T06:28:29;3.50;99.90
12708;DHT22;6418;50.824;4.718;2022-11-20T06:30:56;3.60;99.90
12708;DHT22;6418;50.824;4.718;2022-11-20T06:33:23;3.60;99.90
12708;DHT22;6418;50.824;4.718;2022-11-20T06:35:50;3.60;99.90
12708;DHT22;6418;50.824;4.718;2022-11-20T06:38:18;3.50;99.90
12708;DHT22;6418;50.824;4.718;2022-11-20T06:40:46;3.50;99.90
12708;DHT22;6418;50.824;4.718;2022-11-20T06:43:13;5.00;99.90
12708;DHT22;6418;50.824;4.718;2022-11-20T06:45:40;3.50;99.90
12708;DHT22;6418;50.824;4.718;2022-11-20T06:48:06;3.50;99.90
12708;DHT22;6418;50.824;4.718;2022-11-20T06:50:33;3.60;99.90
12708;DHT22;6418;50.824;4.718;2022-11-20T06:53:01;3.50;99.90
12708;DHT22;6418;50.824;4.718;2022-11-20T06:55:31;3.60;99.90
12708;DHT22;6418;50.824;4.718;2022-11-20T06:57:58;3.60;99.90
12708;DHT22;6418;50.824;4.718;2022-11-20T07:00:25;3.60;99.90
12708;DHT22;6418;50.824;4.718;2022-11-20T07:02:52;3.60;99.90
12708;DHT22;6418;50.824;4.718;2022-11-20T07:05:18;4.00;99.90
12708;DHT22;6418;50.824;4.718;2022-11-20T07:07:45;3.60;99.90
12708;DHT22;6418;50.824;4.718;2022-11-20T07:10:12;3.70;99.90
12708;DHT22;6418;50.824;4.718;2022-11-20T07:12:41;3.70;99.90
12708;DHT22;6418;50.824;4.718;2022-11-20T07:15:08;4.00;99.90
12708;DHT22;6418;50.824;4.718;2022-11-20T07:17:35;3.70;99.90
12708;DHT22;6418;50.824;4.718;2022-11-20T07:20:02;3.70;99.90
12708;DHT22;6418;50.824;4.718;2022-11-20T07:22:29;3.70;99.90
12708;DHT22;6418;50.824;4.718;2022-11-20T07:24:56;3.70;99.90
12708;DHT22;6418;50.824;4.718;2022-11-20T07:27:23;3.80;99.90
12708;DHT22;6418;50.824;4.718;2022-11-20T07:29:51;3.80;99.90
12708;DHT22;6418;50.824;4.718;2022-11-20T07:32:18;3.80;99.90
12708;DHT22;6418;50.824;4.718;2022-11-20T07:34:45;3.80;99.90
12708;DHT22;6418;50.824;4.718;2022-11-20T07:37:12;3.90;99.90
12708;DHT22;6418;50.824;4.718;2022-11-20T07:39:39;3.90;99.90
12708;DHT22;6418;50.824;4.718;2022-11-20T07:42:06;3.90;99.90
12708;DHT22;6418;50.824;4.718;2022-11-20T07:44:33;3.90;99.90
12708;DHT22;6418;50.824;4.718;2022-11-20T07:47:02;4.00;99.90
12708;DHT22;6418;50.824;4.718;2022-11-20T07:49:29;4.00;99.90
12708;DHT22;6418;50.824;4.718;2022-11-20T07:51:56;4.00;99.90
12708;DHT22;6418;50.824;4.718;2022-11-20T07:54:23;4.00;99.90
12708;DHT22;6418;50.824;4.718;2022-11-20T07:56:50;4.10;99.90
12708;DHT22;6418;50.824;4.718;2022-11-20T07:59:17;4.40;99.90
12708;DHT22;6418;50.824;4.718;2022-11-20T08:01:44;4.10;99.90
12708;DHT22;6418;50.824;4.718;2022-11-20T08:04:12;4.20;99.90
12708;DHT22;6418;50.824;4.718;2022-11-20T08:06:40;4.20;99.90
12708;DHT22;6418;50.824;4.718;2022-11-20T08:09:07;4.20;99.90
12708;DHT22;6418;50.824;4.718;2022-11-20T08:11:35;4.30;99.90
12708;DHT22;6418;50.824;4.718;2022-11-20T08:14:19;4.30;99.90
12708;DHT22;6418;50.824;4.718;2022-11-20T08:16:48;4.30;99.90
12708;DHT22;6418;50.824;4.718;2022-11-20T08:19:18;4.40;99.90
12708;DHT22;6418;50.824;4.718;2022-11-20T08:21:45;5.30;99.90
12708;DHT22;6418;50.824;4.718;2022-11-20T08:24:12;4.40;99.90
12708;DHT22;6418;50.824;4.718;2022-11-20T08:26:40;4.50;99.90
12708;DHT22;6418;50.824;4.718;2022-11-20T08:29:07;4.50;99.90
12708;DHT22;6418;50.824;4.718;2022-11-20T08:31:34;4.60;99.90
12708;DHT22;6418;50.824;4.718;2022-11-20T08:34:01;4.60;99.90
12708;DHT22;6418;50.824;4.718;2022-11-20T08:36:32;4.60;99.90
12708;DHT22;6418;50.824;4.718;2022-11-20T08:39:00;4.70;99.90
12708;DHT22;6418;50.824;4.718;2022-11-20T08:41:27;5.60;99.90
12708;DHT22;6418;50.824;4.718;2022-11-20T08:43:55;4.80;99.90
12708;DHT22;6418;50.824;4.718;2022-11-20T08:46:25;4.80;99.90
12708;DHT22;6418;50.824;4.718;2022-11-20T08:48:52;4.90;99.90
12708;DHT22;6418;50.824;4.718;2022-11-20T08:51:19;4.90;99.90
12708;DHT22;6418;50.824;4.718;2022-11-20T08:53:48;4.90;99.90
12708;DHT22;6418;50.824;4.718;2022-11-20T08:56:15;5.00;99.90
12708;DHT22;6418;50.824;4.718;2022-11-20T08:58:43;5.00;99.90
12708;DHT22;6418;50.824;4.718;2022-11-20T09:01:10;5.00;99.90
12708;DHT22;6418;50.824;4.718;2022-11-20T09:03:37;5.10;99.90
12708;DHT22;6418;50.824;4.718;2022-11-20T09:06:06;6.10;99.90
12708;DHT22;6418;50.824;4.718;2022-11-20T09:08:33;5.20;99.90
12708;DHT22;6418;50.824;4.718;2022-11-20T09:11:03;5.30;99.90
12708;DHT22;6418;50.824;4.718;2022-11-20T09:13:31;5.30;99.90
12708;DHT22;6418;50.824;4.718;2022-11-20T09:15:59;5.30;99.90
12708;DHT22;6418;50.824;4.718;2022-11-20T09:18:27;5.40;99.90
12708;DHT22;6418;50.824;4.718;2022-11-20T09:20:57;5.40;99.90
12708;DHT22;6418;50.824;4.718;2022-11-20T09:23:24;5.50;99.90
12708;DHT22;6418;50.824;4.718;2022-11-20T09:25:51;5.50;99.90
12708;DHT22;6418;50.824;4.718;2022-11-20T09:28:22;5.60;99.90
12708;DHT22;6418;50.824;4.718;2022-11-20T09:30:49;5.60;99.90
12708;DHT22;6418;50.824;4.718;2022-11-20T09:33:16;5.70;99.90
12708;DHT22;6418;50.824;4.718;2022-11-20T09:35:43;5.70;99.90
12708;DHT22;6418;50.824;4.718;2022-11-20T09:38:10;5.80;99.90
12708;DHT22;6418;50.824;4.718;2022-11-20T09:40:44;5.90;99.90
12708;DHT22;6418;50.824;4.718;2022-11-20T09:43:15;5.90;99.90
12708;DHT22;6418;50.824;4.718;2022-11-20T09:45:56;5.90;99.90
12708;DHT22;6418;50.824;4.718;2022-11-20T09:48:46;6.10;99.90
12708;DHT22;6418;50.824;4.718;2022-11-20T09:51:23;6.10;99.90
12708;DHT22;6418;50.824;4.718;2022-11-20T09:54:01;6.20;99.90
12708;DHT22;6418;50.824;4.718;2022-11-20T09:56:30;6.20;99.90
12708;DHT22;6418;50.824;4.718;2022-11-20T09:59:03;6.20;99.90
12708;DHT22;6418;50.824;4.718;2022-11-20T10:01:35;6.30;99.90
12708;DHT22;6418;50.824;4.718;2022-11-20T10:04:10;7.70;99.90
12708;DHT22;6418;50.824;4.718;2022-11-20T10:06:47;6.40;99.90
12708;DHT22;6418;50.824;4.718;2022-11-20T10:09:21;6.40;99.90
12708;DHT22;6418;50.824;4.718;2022-11-20T10:12:00;6.50;99.90
12708;DHT22;6418;50.824;4.718;2022-11-20T10:14:35;6.50;99.90
12708;DHT22;6418;50.824;4.718;2022-11-20T10:17:15;6.60;99.90
12708;DHT22;6418;50.824;4.718;2022-11-20T10:19:56;6.60;99.90
12708;DHT22;6418;50.824;4.718;2022-11-20T10:22:34;6.70;99.90
12708;DHT22;6418;50.824;4.718;2022-11-20T10:25:11;6.70;99.90
12708;DHT22;6418;50.824;4.718;2022-11-20T10:27:59;6.70;99.90
12708;DHT22;6418;50.824;4.718;2022-11-20T10:30:30;6.80;99.90
12708;DHT22;6418;50.824;4.718;2022-11-20T10:33:03;6.90;99.90
12708;DHT22;6418;50.824;4.718;2022-11-20T10:35:35;6.80;99.90
12708;DHT22;6418;50.824;4.718;2022-11-20T10:38:09;7.00;99.90
12708;DHT22;6418;50.824;4.718;2022-11-20T10:40:40;7.00;99.90
12708;DHT22;6418;50.824;4.718;2022-11-20T10:43:11;7.10;99.90
12708;DHT22;6418;50.824;4.718;2022-11-20T10:45:50;7.10;99.90
12708;DHT22;6418;50.824;4.718;2022-11-20T10:48:21;7.10;99.90
12708;DHT22;6418;50.824;4.718;2022-11-20T10:51:03;7.20;99.90
12708;DHT22;6418;50.824;4.718;2022-11-20T10:53:57;7.20;99.90
12708;DHT22;6418;50.824;4.718;2022-11-20T10:56:30;7.30;99.90
12708;DHT22;6418;50.824;4.718;2022-11-20T10:59:32;7.40;99.90
12708;DHT22;6418;50.824;4.718;2022-11-20T11:02:12;7.40;99.90
12708;DHT22;6418;50.824;4.718;2022-11-20T11:04:45;7.40;99.90
12708;DHT22;6418;50.824;4.718;2022-11-20T11:07:15;7.50;99.90
12708;DHT22;6418;50.824;4.718;2022-11-20T11:09:46;7.60;99.90
12708;DHT22;6418;50.824;4.718;2022-11-20T11:12:14;7.60;99.90
12708;DHT22;6418;50.824;4.718;2022-11-20T11:14:46;7.70;99.90
12708;DHT22;6418;50.824;4.718;2022-11-20T11:17:27;7.80;99.90
12708;DHT22;6418;50.824;4.718;2022-11-20T11:20:02;7.90;99.90
12708;DHT22;6418;50.824;4.718;2022-11-20T11:22:30;7.90;99.90
12708;DHT22;6418;50.824;4.718;2022-11-20T11:24:58;7.80;99.90
12708;DHT22;6418;50.824;4.718;2022-11-20T11:27:25;8.00;99.90
12708;DHT22;6418;50.824;4.718;2022-11-20T11:30:10;8.00;99.90
12708;DHT22;6418;50.824;4.718;2022-11-20T11:32:38;8.10;99.90
12708;DHT22;6418;50.824;4.718;2022-11-20T11:35:19;8.30;99.90
12708;DHT22;6418;50.824;4.718;2022-11-20T11:37:47;8.10;99.90
12708;DHT22;6418;50.824;4.718;2022-11-20T11:40:15;8.20;99.90
12708;DHT22;6418;50.824;4.718;2022-11-20T11:42:46;8.20;99.90
12708;DHT22;6418;50.824;4.718;2022-11-20T11:45:15;8.30;99.90
12708;DHT22;6418;50.824;4.718;2022-11-20T11:47:46;8.30;99.90
12708;DHT22;6418;50.824;4.718;2022-11-20T11:50:17;8.30;99.90
12708;DHT22;6418;50.824;4.718;2022-11-20T11:52:48;8.40;99.90
12708;DHT22;6418;50.824;4.718;2022-11-20T11:55:21;8.40;99.90
12708;DHT22;6418;50.824;4.718;2022-11-20T11:57:55;8.40;99.90
12708;DHT22;6418;50.824;4.718;2022-11-20T12:00:26;8.90;99.90
12708;DHT22;6418;50.824;4.718;2022-11-20T12:03:00;8.50;99.90
12708;DHT22;6418;50.824;4.718;2022-11-20T12:05:38;9.60;99.90
12708;DHT22;6418;50.824;4.718;2022-11-20T12:08:13;8.60;99.90
12708;DHT22;6418;50.824;4.718;2022-11-20T12:10:45;8.70;99.90
12708;DHT22;6418;50.824;4.718;2022-11-20T12:13:36;8.50;99.90
12708;DHT22;6418;50.824;4.718;2022-11-20T12:16:04;8.50;99.90
12708;DHT22;6418;50.824;4.718;2022-11-20T12:18:32;8.40;99.90
12708;DHT22;6418;50.824;4.718;2022-11-20T12:21:14;8.40;99.90
12708;DHT22;6418;50.824;4.718;2022-11-20T12:26:42;8.20;99.90
12708;DHT22;6418;50.824;4.718;2022-11-20T12:29:18;8.30;99.90
12708;DHT22;6418;50.824;4.718;2022-11-20T12:31:56;8.20;99.90
12708;DHT22;6418;50.824;4.718;2022-11-20T12:34:41;8.40;99.90
12708;DHT22;6418;50.824;4.718;2022-11-20T12:37:20;8.10;99.90
12708;DHT22;6418;50.824;4.718;2022-11-20T12:39:49;8.10;99.90
12708;DHT22;6418;50.824;4.718;2022-11-20T12:42:43;8.00;99.90
12708;DHT22;6418;50.824;4.718;2022-11-20T12:45:46;8.00;99.90
12708;DHT22;6418;50.824;4.718;2022-11-20T12:48:42;8.00;99.90
12708;DHT22;6418;50.824;4.718;2022-11-20T12:51:29;7.90;99.90
12708;DHT22;6418;50.824;4.718;2022-11-20T12:54:32;7.90;99.90
12708;DHT22;6418;50.824;4.718;2022-11-20T12:57:09;7.80;99.90
12708;DHT22;6418;50.824;4.718;2022-11-20T13:00:00;7.90;99.90
12708;DHT22;6418;50.824;4.718;2022-11-20T13:02:35;7.80;99.90
12708;DHT22;6418;50.824;4.718;2022-11-20T13:05:18;7.80;99.90
12708;DHT22;6418;50.824;4.718;2022-11-20T13:07:46;7.80;99.90
12708;DHT22;6418;50.824;4.718;2022-11-20T13:10:21;7.70;99.90
12708;DHT22;6418;50.824;4.718;2022-11-20T13:12:55;7.70;99.90
12708;DHT22;6418;50.824;4.718;2022-11-20T13:15:38;7.70;99.90
12708;DHT22;6418;50.824;4.718;2022-11-20T13:18:09;7.70;99.90
12708;DHT22;6418;50.824;4.718;2022-11-20T13:20:41;7.70;99.90
12708;DHT22;6418;50.824;4.718;2022-11-20T13:23:09;7.70;99.90
12708;DHT22;6418;50.824;4.718;2022-11-20T13:25:38;7.70;99.90
12708;DHT22;6418;50.824;4.718;2022-11-20T13:28:27;7.70;99.90
12708;DHT22;6418;50.824;4.718;2022-11-20T13:30:56;7.70;99.90
12708;DHT22;6418;50.824;4.718;2022-11-20T13:33:28;7.70;99.90
12708;DHT22;6418;50.824;4.718;2022-11-20T13:35:58;7.70;99.90
12708;DHT22;6418;50.824;4.718;2022-11-20T13:38:25;7.70;99.90
12708;DHT22;6418;50.824;4.718;2022-11-20T13:40:55;7.70;99.90
12708;DHT22;6418;50.824;4.718;2022-11-20T13:43:27;7.80;99.90
12708;DHT22;6418;50.824;4.718;2022-11-20T13:46:02;7.70;99.90
12708;DHT22;6418;50.824;4.718;2022-11-20T13:48:32;7.70;99.90
12708;DHT22;6418;50.824;4.718;2022-11-20T13:51:27;7.70;99.90
12708;DHT22;6418;50.824;4.718;2022-11-20T13:57:15;7.60;99.90
12708;DHT22;6418;50.824;4.718;2022-11-20T13:59:53;7.60;99.90
12708;DHT22;6418;50.824;4.718;2022-11-20T14:02:26;7.70;99.90
12708;DHT22;6418;50.824;4.718;2022-11-20T14:04:54;7.70;99.90
12708;DHT22;6418;50.824;4.718;2022-11-20T14:07:25;7.60;99.90
12708;DHT22;6418;50.824;4.718;2022-11-20T14:09:55;7.60;99.90
12708;DHT22;6418;50.824;4.718;2022-11-20T14:12:28;7.60;99.90
12708;DHT22;6418;50.824;4.718;2022-11-20T14:14:55;7.60;99.90
12708;DHT22;6418;50.824;4.718;2022-11-20T14:17:28;7.50;99.90
12708;DHT22;6418;50.824;4.718;2022-11-20T14:19:59;8.10;99.90
12708;DHT22;6418;50.824;4.718;2022-11-20T14:22:27;7.60;99.90
12708;DHT22;6418;50.824;4.718;2022-11-20T14:25:04;7.60;99.90
12708;DHT22;6418;50.824;4.718;2022-11-20T14:27:34;7.60;99.90
12708;DHT22;6418;50.824;4.718;2022-11-20T14:30:03;7.60;99.90
12708;DHT22;6418;50.824;4.718;2022-11-20T14:32:31;7.60;99.90
12708;DHT22;6418;50.824;4.718;2022-11-20T14:35:06;7.60;99.90
12708;DHT22;6418;50.824;4.718;2022-11-20T14:37:37;7.60;99.90
12708;DHT22;6418;50.824;4.718;2022-11-20T14:40:22;7.60;99.90
12708;DHT22;6418;50.824;4.718;2022-11-20T14:42:51;7.60;99.90
12708;DHT22;6418;50.824;4.718;2022-11-20T14:45:18;7.50;99.90
12708;DHT22;6418;50.824;4.718;2022-11-20T14:47:45;7.50;99.90
12708;DHT22;6418;50.824;4.718;2022-11-20T14:50:16;7.50;99.90
12708;DHT22;6418;50.824;4.718;2022-11-20T14:52:50;7.50;99.90
12708;DHT22;6418;50.824;4.718;2022-11-20T14:55:25;7.50;99.90
12708;DHT22;6418;50.824;4.718;2022-11-20T14:57:56;7.50;99.90
12708;DHT22;6418;50.824;4.718;2022-11-20T15:00:24;7.50;99.90
12708;DHT22;6418;50.824;4.718;2022-11-20T15:02:52;7.50;99.90
12708;DHT22;6418;50.824;4.718;2022-11-20T15:05:21;7.50;99.90
12708;DHT22;6418;50.824;4.718;2022-11-20T15:07:49;7.50;99.90
12708;DHT22;6418;50.824;4.718;2022-11-20T15:10:21;7.70;99.90
12708;DHT22;6418;50.824;4.718;2022-11-20T15:12:51;7.70;99.90
12708;DHT22;6418;50.824;4.718;2022-11-20T15:15:23;7.50;99.90
12708;DHT22;6418;50.824;4.718;2022-11-20T15:17:51;7.60;99.90
12708;DHT22;6418;50.824;4.718;2022-11-20T15:20:19;8.60;99.90
12708;DHT22;6418;50.824;4.718;2022-11-20T15:22:46;7.50;99.90
12708;DHT22;6418;50.824;4.718;2022-11-20T15:25:15;7.60;99.90
12708;DHT22;6418;50.824;4.718;2022-11-20T15:27:42;7.60;99.90
12708;DHT22;6418;50.824;4.718;2022-11-20T15:30:13;7.80;99.90
12708;DHT22;6418;50.824;4.718;2022-11-20T15:32:42;7.60;99.90
12708;DHT22;6418;50.824;4.718;2022-11-20T15:35:10;7.60;99.90
12708;DHT22;6418;50.824;4.718;2022-11-20T15:37:37;7.60;99.90
12708;DHT22;6418;50.824;4.718;2022-11-20T15:40:05;7.60;99.90
12708;DHT22;6418;50.824;4.718;2022-11-20T15:42:33;7.60;99.90
12708;DHT22;6418;50.824;4.718;2022-11-20T15:45:00;7.60;99.90
12708;DHT22;6418;50.824;4.718;2022-11-20T15:47:30;7.70;99.90
12708;DHT22;6418;50.824;4.718;2022-11-20T15:49:59;7.70;99.90
12708;DHT22;6418;50.824;4.718;2022-11-20T15:52:26;7.80;99.90
12708;DHT22;6418;50.824;4.718;2022-11-20T15:54:53;8.00;99.90
12708;DHT22;6418;50.824;4.718;2022-11-20T15:57:20;7.70;99.90
12708;DHT22;6418;50.824;4.718;2022-11-20T15:59:47;7.80;99.90
12708;DHT22;6418;50.824;4.718;2022-11-20T16:02:15;8.00;99.90
12708;DHT22;6418;50.824;4.718;2022-11-20T16:04:42;7.80;99.90
12708;DHT22;6418;50.824;4.718;2022-11-20T16:07:10;7.80;99.90
12708;DHT22;6418;50.824;4.718;2022-11-20T16:09:38;7.80;99.90
12708;DHT22;6418;50.824;4.718;2022-11-20T16:12:07;7.80;99.90
12708;DHT22;6418;50.824;4.718;2022-11-20T16:14:54;7.80;99.90
12708;DHT22;6418;50.824;4.718;2022-11-20T16:17:38;7.90;99.90
12708;DHT22;6418;50.824;4.718;2022-11-20T16:20:14;7.80;99.90
12708;DHT22;6418;50.824;4.718;2022-11-20T16:22:43;7.80;99.90
12708;DHT22;6418;50.824;4.718;2022-11-20T16:25:10;7.90;99.90
12708;DHT22;6418;50.824;4.718;2022-11-20T16:27:37;7.90;99.90
12708;DHT22;6418;50.824;4.718;2022-11-20T16:30:05;7.90;99.90